YSRI

RAAF Base Richmond Airport

Richmond, Australia
TAF YSRI 212342Z 2200/2224 02005KT 9999 FEW020 FM220200 07010KT CAVOK FM221000 VRB03KT CAVOK FM221500 VRB03KT 9999 -SHRA FEW005 BKN100 PROB30 2214/2221 0500 FG BKN003
Issued Valid From Valid To
Jan-21 @ 23:42 UTC
(56 minutes ago)
Jan-22 @ 00:00 UTC
(38 minutes ago)
Jan-23 @ 00:00 UTC
(in 23 hours)
Jan-22 @ 00:00 to Jan-22 @ 02:00
TAF YSRI 212342Z 2200/2224 02005KT 9999 FEW020
Wind Visibility Clouds
20° at 5 knots 10,000+ meters
  • Few at 2,000' AGL
From Jan-22 @ 02:00 to Jan-22 @ 10:00
FM220200 07010KT CAVOK
Wind Visibility Clouds Conditions
70° at 10 knots 10,000+ meters
  • No significant clouds
From Jan-22 @ 10:00 to Jan-22 @ 15:00
FM221000 VRB03KT CAVOK
Wind Visibility Clouds Conditions
Variable at 3 knots 10,000+ meters
  • No significant clouds
Probable  (Probability 30%) Jan-22 @ 14:00 to Jan-22 @ 21:00
PROB30 2214/2221 0500 FG BKN003
Visibility Clouds Conditions
499 meters
  • Broken at 300' AGL
  • Fog
From Jan-22 @ 15:00 to Jan-23 @ 00:00
FM221500 VRB03KT 9999 -SHRA FEW005 BKN100
Wind Visibility Clouds Conditions
Variable at 3 knots 10,000+ meters
  • Few at 500' AGL
  • Broken at 10,000' AGL
  • Light Rain
TAF YSRI 212342Z 2200/2224 02005KT 9999 FEW020 FM220200 07010KT CAVOK FM221000 VRB03KT CAVOK FM221500 VRB03KT 9999 -SHRA FEW005 BKN100 PROB30 2214/2221 0500 FG BKN003
Issued Jan-21 @ 23:42 UTC
(56 minutes ago)
Valid From Jan-22 @ 00:00 UTC
(38 minutes ago)
Valid To Jan-23 @ 00:00 UTC
(in 23 hours)
Jan-22 @ 00:00 - Jan-22 @ 02:00
Wind Visibility
20° at 5 knots 10,000+ meters
Clouds
  • Few at 2,000' AGL
From Jan-22 @ 02:00 - Jan-22 @ 10:00
Wind Visibility
70° at 10 knots 10,000+ meters
Clouds
  • No significant clouds
Conditions
From Jan-22 @ 10:00 - Jan-22 @ 15:00
Wind Visibility
Variable at 3 knots 10,000+ meters
Clouds
  • No significant clouds
Conditions
Probability 30% Probable Jan-22 @ 14:00 - Jan-22 @ 21:00
Clouds
  • Broken at 300' AGL
Conditions
  • Fog
From Jan-22 @ 15:00 - Jan-23 @ 00:00
Wind Visibility
Variable at 3 knots 10,000+ meters
Clouds
  • Few at 500' AGL
  • Broken at 10,000' AGL
Conditions
  • Light Rain